sensor_id;sensor_type;location;lat;lon;timestamp;pressure;altitude;pressure_sealevel;temperature;humidity
11952;BME280;6036;41.840;23.486;2022-10-16T00:01:14;91007.22;;;10.79;58.00
11952;BME280;6036;41.840;23.486;2022-10-16T00:03:42;91007.34;;;10.41;58.62
11952;BME280;6036;41.840;23.486;2022-10-16T00:06:08;91011.69;;;10.58;58.37
11952;BME280;6036;41.840;23.486;2022-10-16T00:08:35;91014.09;;;10.63;58.46
11952;BME280;6036;41.840;23.486;2022-10-16T00:11:14;91011.16;;;10.85;57.48
11952;BME280;6036;41.840;23.486;2022-10-16T00:13:41;91018.28;;;10.64;58.31
11952;BME280;6036;41.840;23.486;2022-10-16T00:16:08;91012.56;;;10.82;57.78
11952;BME280;6036;41.840;23.486;2022-10-16T00:18:34;91019.09;;;10.97;57.42
11952;BME280;6036;41.840;23.486;2022-10-16T00:21:09;91021.75;;;11.09;56.64
11952;BME280;6036;41.840;23.486;2022-10-16T00:23:35;91018.75;;;11.19;56.53
11952;BME280;6036;41.840;23.486;2022-10-16T00:26:03;91022.00;;;11.16;56.95
11952;BME280;6036;41.840;23.486;2022-10-16T00:28:28;91013.34;;;11.36;56.12
11952;BME280;6036;41.840;23.486;2022-10-16T00:30:54;91015.03;;;11.20;56.00
11952;BME280;6036;41.840;23.486;2022-10-16T00:33:20;91013.63;;;10.40;58.72
11952;BME280;6036;41.840;23.486;2022-10-16T00:35:46;91007.59;;;10.89;57.49
11952;BME280;6036;41.840;23.486;2022-10-16T00:38:12;91011.84;;;11.15;56.37
11952;BME280;6036;41.840;23.486;2022-10-16T00:40:38;91009.63;;;11.04;56.42
11952;BME280;6036;41.840;23.486;2022-10-16T00:43:13;91008.22;;;11.07;56.79
11952;BME280;6036;41.840;23.486;2022-10-16T00:45:39;91012.75;;;10.77;57.63
11952;BME280;6036;41.840;23.486;2022-10-16T00:48:09;91010.44;;;10.96;57.29
11952;BME280;6036;41.840;23.486;2022-10-16T00:50:35;91020.94;;;10.55;58.37
11952;BME280;6036;41.840;23.486;2022-10-16T00:53:01;91017.78;;;10.41;59.08
11952;BME280;6036;41.840;23.486;2022-10-16T00:55:28;91017.38;;;10.80;58.17
11952;BME280;6036;41.840;23.486;2022-10-16T00:57:56;91011.56;;;10.95;56.99
11952;BME280;6036;41.840;23.486;2022-10-16T01:00:25;91023.75;;;10.91;57.34
11952;BME280;6036;41.840;23.486;2022-10-16T01:03:01;91026.50;;;10.95;57.49
11952;BME280;6036;41.840;23.486;2022-10-16T01:05:44;91038.38;;;10.92;57.57
11952;BME280;6036;41.840;23.486;2022-10-16T01:08:20;91034.41;;;10.07;60.08
11952;BME280;6036;41.840;23.486;2022-10-16T01:11:49;91043.41;;;9.89;61.33
11952;BME280;6036;41.840;23.486;2022-10-16T01:13:53;91040.13;;;10.01;61.08
11952;BME280;6036;41.840;23.486;2022-10-16T01:16:34;91043.34;;;10.06;60.24
11952;BME280;6036;41.840;23.486;2022-10-16T01:19:14;91044.19;;;9.90;61.07
11952;BME280;6036;41.840;23.486;2022-10-16T01:21:44;91042.03;;;9.83;61.43
11952;BME280;6036;41.840;23.486;2022-10-16T01:24:33;91045.78;;;10.11;60.67
11952;BME280;6036;41.840;23.486;2022-10-16T01:27:09;91045.00;;;10.49;59.24
11952;BME280;6036;41.840;23.486;2022-10-16T01:29:52;91037.94;;;10.11;59.98
11952;BME280;6036;41.840;23.486;2022-10-16T01:32:31;91040.38;;;10.45;58.94
11952;BME280;6036;41.840;23.486;2022-10-16T01:35:03;91039.94;;;10.14;60.06
11952;BME280;6036;41.840;23.486;2022-10-16T01:40:47;91049.97;;;9.95;60.28
11952;BME280;6036;41.840;23.486;2022-10-16T01:43:18;91053.00;;;10.06;59.68
11952;BME280;6036;41.840;23.486;2022-10-16T01:45:46;91052.66;;;10.24;59.40
11952;BME280;6036;41.840;23.486;2022-10-16T01:48:13;91048.50;;;10.23;59.49
11952;BME280;6036;41.840;23.486;2022-10-16T01:50:44;91058.56;;;9.58;61.78
11952;BME280;6036;41.840;23.486;2022-10-16T01:53:15;91050.69;;;9.66;61.93
11952;BME280;6036;41.840;23.486;2022-10-16T01:55:44;91049.31;;;9.69;61.96
11952;BME280;6036;41.840;23.486;2022-10-16T01:58:12;91059.47;;;9.62;61.94
11952;BME280;6036;41.840;23.486;2022-10-16T02:00:41;91057.13;;;9.77;61.39
11952;BME280;6036;41.840;23.486;2022-10-16T02:03:07;91056.50;;;9.80;61.58
11952;BME280;6036;41.840;23.486;2022-10-16T02:05:45;91064.66;;;9.79;61.42
11952;BME280;6036;41.840;23.486;2022-10-16T02:08:11;91046.75;;;9.98;60.64
11952;BME280;6036;41.840;23.486;2022-10-16T02:10:37;91050.09;;;10.07;60.05
11952;BME280;6036;41.840;23.486;2022-10-16T02:13:07;91040.69;;;10.15;59.95
11952;BME280;6036;41.840;23.486;2022-10-16T02:15:34;91050.72;;;10.42;59.29
11952;BME280;6036;41.840;23.486;2022-10-16T02:18:00;91039.19;;;10.34;59.16
11952;BME280;6036;41.840;23.486;2022-10-16T02:20:28;91041.91;;;9.71;61.01
11952;BME280;6036;41.840;23.486;2022-10-16T02:22:58;91050.53;;;9.71;61.23
11952;BME280;6036;41.840;23.486;2022-10-16T02:25:32;91054.38;;;9.74;61.12
11952;BME280;6036;41.840;23.486;2022-10-16T02:28:06;91049.75;;;9.79;61.19
11952;BME280;6036;41.840;23.486;2022-10-16T02:30:39;91047.78;;;10.14;59.97
11952;BME280;6036;41.840;23.486;2022-10-16T02:33:09;91051.00;;;10.11;59.79
11952;BME280;6036;41.840;23.486;2022-10-16T02:35:36;91055.47;;;9.64;61.27
11952;BME280;6036;41.840;23.486;2022-10-16T02:38:03;91061.31;;;9.70;61.04
11952;BME280;6036;41.840;23.486;2022-10-16T02:40:29;91068.91;;;9.92;60.35
11952;BME280;6036;41.840;23.486;2022-10-16T02:42:55;91065.72;;;9.78;60.53
11952;BME280;6036;41.840;23.486;2022-10-16T02:45:22;91058.75;;;9.99;59.64
11952;BME280;6036;41.840;23.486;2022-10-16T02:47:48;91058.81;;;10.20;58.99
11952;BME280;6036;41.840;23.486;2022-10-16T02:50:14;91062.88;;;10.00;59.27
11952;BME280;6036;41.840;23.486;2022-10-16T02:52:39;91060.09;;;10.14;58.79
11952;BME280;6036;41.840;23.486;2022-10-16T02:55:05;91065.25;;;10.31;58.31
11952;BME280;6036;41.840;23.486;2022-10-16T02:57:30;91065.63;;;10.12;58.97
11952;BME280;6036;41.840;23.486;2022-10-16T02:59:57;91072.31;;;9.84;59.47
11952;BME280;6036;41.840;23.486;2022-10-16T03:02:22;91071.88;;;9.73;60.54
11952;BME280;6036;41.840;23.486;2022-10-16T03:04:47;91070.31;;;9.90;59.77
11952;BME280;6036;41.840;23.486;2022-10-16T03:07:13;91069.03;;;10.04;58.75
11952;BME280;6036;41.840;23.486;2022-10-16T03:09:38;91072.25;;;9.55;60.25
11952;BME280;6036;41.840;23.486;2022-10-16T03:12:04;91069.84;;;9.33;61.11
11952;BME280;6036;41.840;23.486;2022-10-16T03:14:29;91074.59;;;9.13;62.14
11952;BME280;6036;41.840;23.486;2022-10-16T03:16:55;91070.47;;;9.12;62.62
11952;BME280;6036;41.840;23.486;2022-10-16T03:19:20;91075.81;;;9.25;62.36
11952;BME280;6036;41.840;23.486;2022-10-16T03:21:46;91076.31;;;9.18;62.57
11952;BME280;6036;41.840;23.486;2022-10-16T03:24:11;91084.25;;;9.47;62.03
11952;BME280;6036;41.840;23.486;2022-10-16T03:26:37;91079.47;;;9.58;61.58
11952;BME280;6036;41.840;23.486;2022-10-16T03:29:02;91077.94;;;9.57;61.26
11952;BME280;6036;41.840;23.486;2022-10-16T03:31:28;91082.38;;;9.65;61.10
11952;BME280;6036;41.840;23.486;2022-10-16T03:33:54;91086.50;;;9.66;61.07
11952;BME280;6036;41.840;23.486;2022-10-16T03:36:19;91081.56;;;9.73;61.05
11952;BME280;6036;41.840;23.486;2022-10-16T03:38:45;91085.28;;;9.63;61.49
11952;BME280;6036;41.840;23.486;2022-10-16T03:41:10;91093.00;;;9.60;61.99
11952;BME280;6036;41.840;23.486;2022-10-16T03:43:35;91093.97;;;9.93;60.58
11952;BME280;6036;41.840;23.486;2022-10-16T03:46:01;91097.09;;;9.78;60.54
11952;BME280;6036;41.840;23.486;2022-10-16T03:48:26;91094.31;;;9.83;60.28
11952;BME280;6036;41.840;23.486;2022-10-16T03:50:52;91089.13;;;9.74;60.37
11952;BME280;6036;41.840;23.486;2022-10-16T03:53:17;91092.50;;;9.75;60.98
11952;BME280;6036;41.840;23.486;2022-10-16T03:55:44;91087.22;;;9.92;59.88
11952;BME280;6036;41.840;23.486;2022-10-16T03:58:10;91089.53;;;9.85;60.18
11952;BME280;6036;41.840;23.486;2022-10-16T04:00:43;91095.19;;;10.04;59.72
11952;BME280;6036;41.840;23.486;2022-10-16T04:03:08;91086.38;;;10.17;58.91
11952;BME280;6036;41.840;23.486;2022-10-16T04:05:34;91091.16;;;10.15;59.33
11952;BME280;6036;41.840;23.486;2022-10-16T04:07:59;91083.09;;;10.29;58.86
11952;BME280;6036;41.840;23.486;2022-10-16T04:10:25;91078.31;;;10.31;58.98
11952;BME280;6036;41.840;23.486;2022-10-16T04:12:50;91080.94;;;9.76;60.27
11952;BME280;6036;41.840;23.486;2022-10-16T04:15:16;91079.06;;;9.30;62.05
11952;BME280;6036;41.840;23.486;2022-10-16T04:17:41;91080.69;;;9.52;61.67
11952;BME280;6036;41.840;23.486;2022-10-16T04:20:07;91083.50;;;9.30;62.13
11952;BME280;6036;41.840;23.486;2022-10-16T04:22:33;91084.56;;;9.37;62.36
11952;BME280;6036;41.840;23.486;2022-10-16T04:24:58;91083.00;;;9.53;61.78
11952;BME280;6036;41.840;23.486;2022-10-16T04:27:24;91078.41;;;9.42;61.19
11952;BME280;6036;41.840;23.486;2022-10-16T04:29:49;91088.09;;;9.50;60.89
11952;BME280;6036;41.840;23.486;2022-10-16T04:32:14;91082.50;;;9.68;60.36
11952;BME280;6036;41.840;23.486;2022-10-16T04:34:40;91085.28;;;9.72;60.34
11952;BME280;6036;41.840;23.486;2022-10-16T04:37:05;91079.06;;;9.85;59.90
11952;BME280;6036;41.840;23.486;2022-10-16T04:39:31;91085.78;;;10.03;59.17
11952;BME280;6036;41.840;23.486;2022-10-16T04:41:56;91087.75;;;10.15;58.82
11952;BME280;6036;41.840;23.486;2022-10-16T04:44:22;91073.22;;;9.88;59.35
11952;BME280;6036;41.840;23.486;2022-10-16T04:46:49;91085.03;;;9.31;61.85
11952;BME280;6036;41.840;23.486;2022-10-16T04:49:15;91098.25;;;9.43;62.03
11952;BME280;6036;41.840;23.486;2022-10-16T04:51:40;91096.41;;;9.18;63.14
11952;BME280;6036;41.840;23.486;2022-10-16T04:54:05;91087.34;;;8.98;64.31
11952;BME280;6036;41.840;23.486;2022-10-16T04:56:31;91095.16;;;9.41;62.85
11952;BME280;6036;41.840;23.486;2022-10-16T04:58:56;91087.72;;;9.77;61.61
11952;BME280;6036;41.840;23.486;2022-10-16T05:01:22;91099.25;;;9.76;61.67
11952;BME280;6036;41.840;23.486;2022-10-16T05:03:47;91099.94;;;9.13;63.38
11952;BME280;6036;41.840;23.486;2022-10-16T05:06:12;91096.38;;;9.52;62.27
11952;BME280;6036;41.840;23.486;2022-10-16T05:08:38;91095.50;;;9.94;60.79
11952;BME280;6036;41.840;23.486;2022-10-16T05:11:03;91102.06;;;9.62;62.04
11952;BME280;6036;41.840;23.486;2022-10-16T05:13:29;91096.53;;;9.38;62.94
11952;BME280;6036;41.840;23.486;2022-10-16T05:15:54;91104.09;;;9.23;63.85
11952;BME280;6036;41.840;23.486;2022-10-16T05:18:19;91108.66;;;9.60;63.01
11952;BME280;6036;41.840;23.486;2022-10-16T05:20:45;91099.31;;;10.14;61.32
11952;BME280;6036;41.840;23.486;2022-10-16T05:23:10;91103.81;;;10.42;60.59
11952;BME280;6036;41.840;23.486;2022-10-16T05:25:37;91104.34;;;10.57;60.16
11952;BME280;6036;41.840;23.486;2022-10-16T05:28:03;91107.88;;;10.61;59.58
11952;BME280;6036;41.840;23.486;2022-10-16T05:30:28;91110.34;;;11.07;58.25
11952;BME280;6036;41.840;23.486;2022-10-16T05:32:53;91109.78;;;11.22;58.20
11952;BME280;6036;41.840;23.486;2022-10-16T05:35:19;91116.16;;;11.33;57.70
11952;BME280;6036;41.840;23.486;2022-10-16T05:37:45;91118.50;;;11.67;57.00
11952;BME280;6036;41.840;23.486;2022-10-16T05:40:11;91120.41;;;12.12;55.60
11952;BME280;6036;41.840;23.486;2022-10-16T05:42:38;91121.31;;;12.64;54.06
11952;BME280;6036;41.840;23.486;2022-10-16T05:45:05;91122.84;;;12.41;54.63
11952;BME280;6036;41.840;23.486;2022-10-16T05:47:31;91132.97;;;12.06;55.33
11952;BME280;6036;41.840;23.486;2022-10-16T05:49:56;91135.69;;;12.10;55.46
11952;BME280;6036;41.840;23.486;2022-10-16T05:52:22;91138.41;;;12.46;54.48
11952;BME280;6036;41.840;23.486;2022-10-16T05:54:47;91139.28;;;12.74;52.97
11952;BME280;6036;41.840;23.486;2022-10-16T05:57:12;91132.72;;;12.68;52.93
11952;BME280;6036;41.840;23.486;2022-10-16T05:59:38;91141.69;;;12.79;53.61
11952;BME280;6036;41.840;23.486;2022-10-16T06:02:03;91144.28;;;13.03;52.66
11952;BME280;6036;41.840;23.486;2022-10-16T06:04:29;91146.72;;;13.09;53.14
11952;BME280;6036;41.840;23.486;2022-10-16T06:06:58;91151.97;;;13.33;53.14
11952;BME280;6036;41.840;23.486;2022-10-16T06:09:25;91154.53;;;14.12;51.02
11952;BME280;6036;41.840;23.486;2022-10-16T06:11:50;91151.66;;;14.92;49.24
11952;BME280;6036;41.840;23.486;2022-10-16T06:14:16;91157.00;;;15.61;47.39
11952;BME280;6036;41.840;23.486;2022-10-16T06:16:41;91160.59;;;16.30;46.16
11952;BME280;6036;41.840;23.486;2022-10-16T06:19:07;91153.53;;;17.25;43.92
11952;BME280;6036;41.840;23.486;2022-10-16T06:21:33;91170.00;;;18.56;40.98
11952;BME280;6036;41.840;23.486;2022-10-16T06:23:58;91167.16;;;19.70;39.16
11952;BME280;6036;41.840;23.486;2022-10-16T06:26:29;91171.41;;;20.64;36.89
11952;BME280;6036;41.840;23.486;2022-10-16T06:28:56;91174.94;;;21.67;34.79
11952;BME280;6036;41.840;23.486;2022-10-16T06:31:23;91174.84;;;22.20;33.78
11952;BME280;6036;41.840;23.486;2022-10-16T06:33:53;91176.38;;;23.04;32.33
11952;BME280;6036;41.840;23.486;2022-10-16T06:36:18;91176.53;;;23.86;30.63
11952;BME280;6036;41.840;23.486;2022-10-16T06:38:44;91173.84;;;24.30;29.75
11952;BME280;6036;41.840;23.486;2022-10-16T06:41:11;91181.78;;;24.71;29.12
11952;BME280;6036;41.840;23.486;2022-10-16T06:43:37;91179.47;;;25.30;28.39
11952;BME280;6036;41.840;23.486;2022-10-16T06:46:03;91181.75;;;26.05;26.83
11952;BME280;6036;41.840;23.486;2022-10-16T06:48:29;91189.44;;;26.88;25.96
11952;BME280;6036;41.840;23.486;2022-10-16T06:51:13;91194.31;;;27.29;25.68
11952;BME280;6036;41.840;23.486;2022-10-16T06:53:40;91188.25;;;26.89;25.77
11952;BME280;6036;41.840;23.486;2022-10-16T06:58:37;91194.50;;;28.06;24.28
11952;BME280;6036;41.840;23.486;2022-10-16T07:01:03;91196.75;;;28.53;23.18
11952;BME280;6036;41.840;23.486;2022-10-16T07:03:28;91208.09;;;28.31;23.19
11952;BME280;6036;41.840;23.486;2022-10-16T07:05:53;91199.38;;;29.26;22.44
11952;BME280;6036;41.840;23.486;2022-10-16T07:08:19;91204.75;;;29.26;22.32
11952;BME280;6036;41.840;23.486;2022-10-16T07:10:44;91205.66;;;29.74;22.05
11952;BME280;6036;41.840;23.486;2022-10-16T07:13:09;91204.22;;;30.66;21.20
11952;BME280;6036;41.840;23.486;2022-10-16T07:15:38;91212.97;;;31.14;20.28
11952;BME280;6036;41.840;23.486;2022-10-16T07:18:03;91215.88;;;31.72;19.79
11952;BME280;6036;41.840;23.486;2022-10-16T07:20:28;91216.72;;;32.48;18.76
11952;BME280;6036;41.840;23.486;2022-10-16T07:22:54;91216.59;;;32.70;18.66
11952;BME280;6036;41.840;23.486;2022-10-16T07:25:19;91220.09;;;33.16;17.39
11952;BME280;6036;41.840;23.486;2022-10-16T07:27:44;91206.03;;;32.99;18.37
11952;BME280;6036;41.840;23.486;2022-10-16T07:30:10;91207.47;;;33.64;17.54
11952;BME280;6036;41.840;23.486;2022-10-16T07:32:35;91207.09;;;33.89;17.41
11952;BME280;6036;41.840;23.486;2022-10-16T07:35:00;91211.31;;;34.55;16.66
11952;BME280;6036;41.840;23.486;2022-10-16T07:37:26;91210.81;;;34.81;16.41
11952;BME280;6036;41.840;23.486;2022-10-16T07:39:51;91209.97;;;35.13;15.89
11952;BME280;6036;41.840;23.486;2022-10-16T07:42:16;91216.13;;;34.51;16.66
11952;BME280;6036;41.840;23.486;2022-10-16T07:44:42;91208.03;;;34.90;16.37
11952;BME280;6036;41.840;23.486;2022-10-16T07:47:07;91210.94;;;35.68;15.82
11952;BME280;6036;41.840;23.486;2022-10-16T07:49:32;91217.91;;;36.68;14.62
11952;BME280;6036;41.840;23.486;2022-10-16T07:51:58;91217.22;;;36.73;14.60
11952;BME280;6036;41.840;23.486;2022-10-16T07:54:23;91215.50;;;36.56;15.10
11952;BME280;6036;41.840;23.486;2022-10-16T07:56:48;91216.50;;;36.93;14.80
11952;BME280;6036;41.840;23.486;2022-10-16T07:59:13;91221.16;;;37.33;14.67
11952;BME280;6036;41.840;23.486;2022-10-16T08:01:39;91215.13;;;38.74;13.71
11952;BME280;6036;41.840;23.486;2022-10-16T08:04:04;91217.22;;;38.53;12.92
11952;BME280;6036;41.840;23.486;2022-10-16T08:06:30;91214.28;;;38.62;13.44
11952;BME280;6036;41.840;23.486;2022-10-16T08:09:00;91218.72;;;38.60;13.58
11952;BME280;6036;41.840;23.486;2022-10-16T08:11:25;91216.94;;;38.99;12.49
11952;BME280;6036;41.840;23.486;2022-10-16T08:13:51;91222.59;;;39.43;12.70
11952;BME280;6036;41.840;23.486;2022-10-16T08:16:16;91218.81;;;39.24;12.44
11952;BME280;6036;41.840;23.486;2022-10-16T08:18:42;91218.47;;;39.00;13.52
11952;BME280;6036;41.840;23.486;2022-10-16T08:21:11;91222.19;;;39.95;12.74
11952;BME280;6036;41.840;23.486;2022-10-16T08:23:37;91231.22;;;41.25;11.34
11952;BME280;6036;41.840;23.486;2022-10-16T08:26:06;91232.13;;;41.49;10.86
11952;BME280;6036;41.840;23.486;2022-10-16T08:28:31;91224.88;;;41.46;10.98
11952;BME280;6036;41.840;23.486;2022-10-16T08:31:04;91225.19;;;42.19;10.57
11952;BME280;6036;41.840;23.486;2022-10-16T08:33:29;91219.59;;;43.27;10.34
11952;BME280;6036;41.840;23.486;2022-10-16T08:35:54;91222.88;;;44.00;9.77
11952;BME280;6036;41.840;23.486;2022-10-16T08:38:20;91224.38;;;44.01;9.50
11952;BME280;6036;41.840;23.486;2022-10-16T08:40:45;91221.94;;;43.79;9.64
11952;BME280;6036;41.840;23.486;2022-10-16T08:50:35;91217.94;;;43.43;9.31
11952;BME280;6036;41.840;23.486;2022-10-16T08:53:01;91224.31;;;43.51;8.89
11952;BME280;6036;41.840;23.486;2022-10-16T08:55:38;91219.16;;;44.74;8.51
11952;BME280;6036;41.840;23.486;2022-10-16T08:58:13;91224.19;;;45.67;7.86
11952;BME280;6036;41.840;23.486;2022-10-16T09:00:39;91220.31;;;46.17;7.59
11952;BME280;6036;41.840;23.486;2022-10-16T09:03:11;91230.13;;;46.39;7.47
11952;BME280;6036;41.840;23.486;2022-10-16T09:05:49;91227.38;;;46.05;7.72
11952;BME280;6036;41.840;23.486;2022-10-16T09:10:53;91222.66;;;45.79;7.97
11952;BME280;6036;41.840;23.486;2022-10-16T09:13:23;91225.25;;;45.51;8.01
11952;BME280;6036;41.840;23.486;2022-10-16T09:18:38;91202.56;;;38.19;11.85
11952;BME280;6036;41.840;23.486;2022-10-16T09:23:35;91194.25;;;33.89;15.66
11952;BME280;6036;41.840;23.486;2022-10-16T09:26:02;91199.94;;;31.43;17.43
11952;BME280;6036;41.840;23.486;2022-10-16T09:28:28;91188.63;;;31.14;17.98
11952;BME280;6036;41.840;23.486;2022-10-16T09:30:54;91187.13;;;31.43;17.83
11952;BME280;6036;41.840;23.486;2022-10-16T09:33:23;91187.00;;;30.95;18.91
11952;BME280;6036;41.840;23.486;2022-10-16T09:35:52;91182.75;;;30.50;18.63
11952;BME280;6036;41.840;23.486;2022-10-16T09:38:32;91185.22;;;30.10;18.94
11952;BME280;6036;41.840;23.486;2022-10-16T09:41:22;91175.34;;;29.70;19.22
11952;BME280;6036;41.840;23.486;2022-10-16T09:43:57;91175.00;;;29.30;20.20
11952;BME280;6036;41.840;23.486;2022-10-16T09:46:33;91175.72;;;29.05;20.56
11952;BME280;6036;41.840;23.486;2022-10-16T09:49:04;91172.47;;;28.11;19.92
11952;BME280;6036;41.840;23.486;2022-10-16T09:51:35;91169.25;;;26.41;21.61
11952;BME280;6036;41.840;23.486;2022-10-16T09:54:18;91161.94;;;26.61;21.81
11952;BME280;6036;41.840;23.486;2022-10-16T09:56:44;91159.81;;;26.53;22.01
11952;BME280;6036;41.840;23.486;2022-10-16T09:59:21;91163.03;;;26.24;21.77
11952;BME280;6036;41.840;23.486;2022-10-16T10:01:50;91163.28;;;24.50;23.51
11952;BME280;6036;41.840;23.486;2022-10-16T10:04:17;91164.16;;;24.03;24.32
11952;BME280;6036;41.840;23.486;2022-10-16T10:09:20;91162.53;;;25.10;23.58
11952;BME280;6036;41.840;23.486;2022-10-16T10:14:18;91163.72;;;24.11;24.52
11952;BME280;6036;41.840;23.486;2022-10-16T10:16:45;91165.09;;;23.41;25.63
11952;BME280;6036;41.840;23.486;2022-10-16T10:19:19;91166.56;;;23.46;24.95
11952;BME280;6036;41.840;23.486;2022-10-16T10:21:45;91158.63;;;23.39;24.77
11952;BME280;6036;41.840;23.486;2022-10-16T10:24:15;91153.53;;;22.96;25.84
11952;BME280;6036;41.840;23.486;2022-10-16T10:27:00;91142.94;;;21.81;26.81
11952;BME280;6036;41.840;23.486;2022-10-16T10:35:20;91142.63;;;21.23;27.00
11952;BME280;6036;41.840;23.486;2022-10-16T10:38:34;91130.81;;;21.52;26.01
11952;BME280;6036;41.840;23.486;2022-10-16T10:41:16;91139.13;;;21.93;27.23
11952;BME280;6036;41.840;23.486;2022-10-16T10:47:05;91133.81;;;21.86;27.43
11952;BME280;6036;41.840;23.486;2022-10-16T10:52:26;91132.94;;;22.21;25.96
11952;BME280;6036;41.840;23.486;2022-10-16T11:02:48;91117.56;;;22.53;25.77
11952;BME280;6036;41.840;23.486;2022-10-16T11:08:11;91112.63;;;22.48;24.75
11952;BME280;6036;41.840;23.486;2022-10-16T11:10:45;91105.38;;;22.52;24.72
11952;BME280;6036;41.840;23.486;2022-10-16T11:15:43;91116.84;;;22.49;26.89
11952;BME280;6036;41.840;23.486;2022-10-16T11:18:16;91108.78;;;22.56;26.01
11952;BME280;6036;41.840;23.486;2022-10-16T11:21:00;91103.09;;;22.47;25.48
11952;BME280;6036;41.840;23.486;2022-10-16T11:23:36;91109.69;;;22.25;24.93
11952;BME280;6036;41.840;23.486;2022-10-16T11:26:06;91099.88;;;22.04;24.96
11952;BME280;6036;41.840;23.486;2022-10-16T11:28:45;91093.91;;;21.47;25.59
11952;BME280;6036;41.840;23.486;2022-10-16T11:34:06;91095.34;;;21.83;25.91
11952;BME280;6036;41.840;23.486;2022-10-16T11:36:45;91103.34;;;21.83;26.52
11952;BME280;6036;41.840;23.486;2022-10-16T11:39:21;91100.66;;;21.97;26.90
11952;BME280;6036;41.840;23.486;2022-10-16T11:41:52;91098.72;;;22.09;24.90
11952;BME280;6036;41.840;23.486;2022-10-16T11:49:50;91091.13;;;22.07;25.32
11952;BME280;6036;41.840;23.486;2022-10-16T11:52:40;91108.94;;;22.24;25.56
11952;BME280;6036;41.840;23.486;2022-10-16T11:55:17;91098.66;;;22.23;24.92
11952;BME280;6036;41.840;23.486;2022-10-16T11:57:59;91096.34;;;22.28;25.92
11952;BME280;6036;41.840;23.486;2022-10-16T12:01:03;91098.31;;;22.14;25.02
11952;BME280;6036;41.840;23.486;2022-10-16T12:03:46;91095.44;;;20.92;25.32
11952;BME280;6036;41.840;23.486;2022-10-16T12:08:50;91102.19;;;21.95;24.68
11952;BME280;6036;41.840;23.486;2022-10-16T12:19:20;91098.75;;;22.01;25.14
11952;BME280;6036;41.840;23.486;2022-10-16T12:21:46;91097.56;;;22.17;24.89
11952;BME280;6036;41.840;23.486;2022-10-16T12:24:36;91097.22;;;22.00;25.03
11952;BME280;6036;41.840;23.486;2022-10-16T12:27:06;91093.50;;;21.63;25.42
11952;BME280;6036;41.840;23.486;2022-10-16T12:32:04;91104.13;;;21.73;25.69
11952;BME280;6036;41.840;23.486;2022-10-16T12:34:42;91107.94;;;21.79;27.11
11952;BME280;6036;41.840;23.486;2022-10-16T12:37:18;91104.53;;;21.68;26.86
11952;BME280;6036;41.840;23.486;2022-10-16T12:39:45;91099.19;;;21.82;27.18
11952;BME280;6036;41.840;23.486;2022-10-16T12:42:41;91103.41;;;21.62;27.65
11952;BME280;6036;41.840;23.486;2022-10-16T12:47:52;91093.44;;;21.80;27.17
11952;BME280;6036;41.840;23.486;2022-10-16T12:50:25;91104.91;;;21.63;27.62
11952;BME280;6036;41.840;23.486;2022-10-16T12:52:51;91106.06;;;21.69;27.36
11952;BME280;6036;41.840;23.486;2022-10-16T12:55:18;91107.63;;;21.31;27.57
11952;BME280;6036;41.840;23.486;2022-10-16T12:58:00;91109.91;;;20.91;28.43
11952;BME280;6036;41.840;23.486;2022-10-16T13:00:57;91107.53;;;20.43;29.40
11952;BME280;6036;41.840;23.486;2022-10-16T13:06:19;91111.06;;;21.21;29.16
11952;BME280;6036;41.840;23.486;2022-10-16T13:17:20;91117.47;;;21.56;28.72
11952;BME280;6036;41.840;23.486;2022-10-16T13:23:21;91128.94;;;21.07;28.65
11952;BME280;6036;41.840;23.486;2022-10-16T13:28:35;91126.63;;;21.16;28.75
11952;BME280;6036;41.840;23.486;2022-10-16T13:31:03;91130.81;;;21.42;28.93
11952;BME280;6036;41.840;23.486;2022-10-16T13:33:38;91128.16;;;21.52;28.71
11952;BME280;6036;41.840;23.486;2022-10-16T13:36:05;91128.88;;;21.63;28.97
11952;BME280;6036;41.840;23.486;2022-10-16T13:38:35;91128.16;;;21.31;29.43
11952;BME280;6036;41.840;23.486;2022-10-16T13:41:11;91128.53;;;21.26;29.57
11952;BME280;6036;41.840;23.486;2022-10-16T13:43:47;91127.03;;;21.14;29.29
11952;BME280;6036;41.840;23.486;2022-10-16T13:48:42;91134.25;;;21.49;29.03
11952;BME280;6036;41.840;23.486;2022-10-16T13:51:18;91133.06;;;21.61;29.16
11952;BME280;6036;41.840;23.486;2022-10-16T13:53:44;91122.06;;;21.55;29.19
11952;BME280;6036;41.840;23.486;2022-10-16T13:56:18;91125.88;;;21.58;29.58
11952;BME280;6036;41.840;23.486;2022-10-16T13:58:44;91135.72;;;21.68;29.19
11952;BME280;6036;41.840;23.486;2022-10-16T14:01:28;91142.22;;;21.46;29.39
11952;BME280;6036;41.840;23.486;2022-10-16T14:04:10;91136.16;;;21.34;29.68
11952;BME280;6036;41.840;23.486;2022-10-16T14:06:41;91136.91;;;21.35;30.11
11952;BME280;6036;41.840;23.486;2022-10-16T14:09:26;91141.09;;;21.32;30.44
11952;BME280;6036;41.840;23.486;2022-10-16T14:11:59;91142.63;;;21.30;31.27
11952;BME280;6036;41.840;23.486;2022-10-16T14:14:29;91143.00;;;21.18;32.00
11952;BME280;6036;41.840;23.486;2022-10-16T14:16:57;91149.06;;;21.01;32.58
11952;BME280;6036;41.840;23.486;2022-10-16T14:19:27;91148.59;;;20.56;33.59
11952;BME280;6036;41.840;23.486;2022-10-16T14:21:54;91143.28;;;20.63;33.11
11952;BME280;6036;41.840;23.486;2022-10-16T14:26:55;91156.16;;;20.47;32.75
11952;BME280;6036;41.840;23.486;2022-10-16T14:29:23;91156.97;;;20.58;32.62
11952;BME280;6036;41.840;23.486;2022-10-16T14:31:59;91156.91;;;20.44;33.85
11952;BME280;6036;41.840;23.486;2022-10-16T14:37:01;91163.97;;;20.08;36.02
11952;BME280;6036;41.840;23.486;2022-10-16T14:39:32;91162.81;;;20.06;36.19
11952;BME280;6036;41.840;23.486;2022-10-16T14:41:58;91164.97;;;19.83;36.34
11952;BME280;6036;41.840;23.486;2022-10-16T14:44:42;91172.16;;;19.79;36.26
11952;BME280;6036;41.840;23.486;2022-10-16T14:47:13;91185.06;;;19.29;37.13
11952;BME280;6036;41.840;23.486;2022-10-16T14:49:41;91176.41;;;18.92;37.45
11952;BME280;6036;41.840;23.486;2022-10-16T14:52:11;91186.50;;;18.79;37.59
11952;BME280;6036;41.840;23.486;2022-10-16T14:54:37;91189.03;;;18.65;37.78